createdAt,value
2022-09-03T00:00:17.265Z,42.50
2022-09-03T00:02:13.588Z,42.70
2022-09-03T00:03:14.565Z,42.80
2022-09-03T00:04:14.554Z,42.80
2022-09-03T00:05:14.581Z,43.00
2022-09-03T00:06:14.539Z,42.90
2022-09-03T00:07:14.527Z,42.80
2022-09-03T00:08:14.539Z,42.92
2022-09-03T00:09:14.502Z,43.00
2022-09-03T00:10:14.683Z,43.12
2022-09-03T00:11:14.516Z,43.02
2022-09-03T00:12:14.474Z,43.12
2022-09-03T00:13:14.475Z,43.12
2022-09-03T00:14:14.452Z,43.32
2022-09-03T00:15:14.441Z,43.32
2022-09-03T00:16:14.453Z,43.22
2022-09-03T00:17:14.454Z,43.42
2022-09-03T00:18:14.404Z,43.62
2022-09-03T00:19:14.401Z,43.62
2022-09-03T00:20:14.381Z,43.82
2022-09-03T00:21:14.372Z,43.73
2022-09-03T00:22:14.368Z,43.85
2022-09-03T00:23:14.373Z,43.65
2022-09-03T00:24:15.210Z,44.05
2022-09-03T00:25:14.351Z,43.85
2022-09-03T00:26:14.322Z,43.95
2022-09-03T00:27:14.310Z,43.93
2022-09-03T00:28:14.301Z,43.93
2022-09-03T00:29:14.294Z,43.93
2022-09-03T00:30:16.550Z,43.82
2022-09-03T00:31:14.371Z,43.73
2022-09-03T00:32:14.261Z,43.93
2022-09-03T00:33:14.256Z,43.95
2022-09-03T00:34:14.230Z,44.15
2022-09-03T00:35:14.252Z,44.05
2022-09-03T00:36:14.220Z,44.25
2022-09-03T00:37:15.612Z,44.05
2022-09-03T00:38:14.190Z,44.15
2022-09-03T00:39:14.183Z,44.05
2022-09-03T00:40:14.188Z,44.05
2022-09-03T00:41:14.169Z,43.95
2022-09-03T00:42:14.256Z,44.15
2022-09-03T00:43:14.139Z,44.15
2022-09-03T00:44:14.123Z,44.05
2022-09-03T00:45:14.117Z,44.05
2022-09-03T00:46:14.154Z,44.25
2022-09-03T00:47:14.108Z,44.25
2022-09-03T00:48:14.108Z,44.25
2022-09-03T00:49:14.109Z,44.45
2022-09-03T00:50:14.065Z,44.45
2022-09-03T00:51:14.055Z,44.45
2022-09-03T00:52:14.058Z,44.55
2022-09-03T00:53:14.029Z,44.55
2022-09-03T00:54:14.026Z,44.47
2022-09-03T00:55:14.011Z,44.67
2022-09-03T00:56:13.991Z,44.57
2022-09-03T00:57:14.019Z,44.67
2022-09-03T00:58:13.979Z,44.87
2022-09-03T00:59:13.969Z,44.57
2022-09-03T01:00:13.955Z,44.57
2022-09-03T01:01:14.092Z,44.78
2022-09-03T01:02:14.292Z,44.87
2022-09-03T01:03:13.947Z,44.87
2022-09-03T01:04:13.911Z,45.07
2022-09-03T01:05:13.900Z,45.07
2022-09-03T01:06:13.903Z,45.28
2022-09-03T01:07:13.883Z,45.28
2022-09-03T01:08:13.897Z,45.18
2022-09-03T01:09:13.854Z,45.18
2022-09-03T05:01:40.193Z,47.67
2022-09-03T05:02:47.204Z,47.98
2022-09-03T05:03:41.157Z,47.75
2022-09-03T05:04:41.154Z,47.75
2022-09-03T05:05:41.136Z,47.55
2022-09-03T05:06:41.125Z,47.75
2022-09-03T05:07:41.119Z,47.55
2022-09-03T05:08:41.119Z,47.55
2022-09-03T05:09:41.116Z,47.55
2022-09-03T05:10:41.081Z,47.66
2022-09-03T05:11:41.079Z,47.55
2022-09-03T05:12:41.089Z,47.75
2022-09-03T05:13:41.062Z,47.66
2022-09-03T05:14:47.078Z,47.55
2022-09-03T05:15:41.030Z,47.66
2022-09-03T05:16:41.107Z,47.75
2022-09-03T05:17:41.015Z,47.55
2022-09-03T05:18:41.002Z,47.66
2022-09-03T05:19:41.036Z,47.66
2022-09-03T05:20:40.981Z,47.66
2022-09-03T05:21:40.968Z,47.55
2022-09-03T05:22:40.953Z,47.45
2022-09-03T05:23:40.952Z,47.45
2022-09-03T05:24:40.945Z,47.55
2022-09-03T05:25:40.946Z,47.45
2022-09-03T05:26:40.917Z,47.55
2022-09-03T05:27:40.906Z,47.55
2022-09-03T05:28:40.893Z,47.63
2022-09-03T05:29:40.898Z,47.63
2022-09-03T05:30:40.866Z,47.53
2022-09-03T05:31:40.916Z,47.53
2022-09-03T05:32:40.844Z,47.43
2022-09-03T05:33:40.844Z,47.53
2022-09-03T05:34:40.827Z,47.53
2022-09-03T05:35:40.840Z,47.43
2022-09-03T05:36:40.824Z,47.43
2022-09-03T05:37:40.807Z,47.53
2022-09-03T05:38:40.787Z,47.53
2022-09-03T05:39:40.844Z,47.53
2022-09-03T05:40:40.775Z,47.53
2022-09-03T05:41:40.776Z,47.63
2022-09-03T05:42:40.756Z,47.74
2022-09-03T05:43:40.734Z,47.74
2022-09-03T05:44:40.730Z,48.03
2022-09-03T05:45:40.763Z,47.74
2022-09-03T05:46:40.712Z,47.74
2022-09-03T05:47:40.712Z,47.63
2022-09-03T05:48:40.679Z,47.53
2022-09-03T05:49:40.677Z,47.53
2022-09-03T05:50:40.654Z,47.74
2022-09-03T05:51:40.648Z,47.74
2022-09-03T05:52:40.649Z,47.74
2022-09-03T05:53:40.647Z,47.74
2022-09-03T05:54:40.613Z,47.74
2022-09-03T05:55:40.602Z,47.83
2022-09-03T05:56:40.599Z,47.83
2022-09-03T05:57:40.587Z,47.94
2022-09-03T05:58:40.596Z,48.03
2022-09-03T05:59:40.561Z,48.14
2022-09-03T06:00:40.561Z,48.11
2022-09-03T06:01:40.576Z,47.91
2022-09-03T06:02:40.676Z,48.01
2022-09-03T06:03:40.721Z,47.91
2022-09-03T06:04:40.556Z,47.81
2022-09-03T06:05:40.498Z,47.71
2022-09-03T06:06:40.497Z,47.61
2022-09-03T06:07:40.491Z,47.91
2022-09-03T06:08:40.473Z,47.81
2022-09-03T06:09:40.473Z,47.81
2022-09-03T06:10:41.251Z,47.71
2022-09-03T06:11:40.455Z,47.91
2022-09-03T06:12:40.423Z,47.71
2022-09-03T06:13:40.406Z,47.81
2022-09-03T06:14:40.394Z,47.81
2022-09-03T06:15:40.405Z,47.91
2022-09-03T06:16:40.432Z,47.81
2022-09-03T06:17:40.367Z,47.91
2022-09-03T06:18:40.359Z,48.01
2022-09-03T06:19:40.347Z,48.01
2022-09-03T06:20:40.337Z,48.01
2022-09-03T06:21:40.339Z,47.91
2022-09-03T06:22:40.362Z,48.01
2022-09-03T06:23:41.058Z,48.01
2022-09-03T06:24:40.305Z,48.11
2022-09-03T06:25:40.285Z,48.11
2022-09-03T06:26:40.273Z,48.21
2022-09-03T06:27:40.290Z,48.01
2022-09-03T06:28:40.260Z,48.21
2022-09-03T06:29:40.265Z,48.11
2022-09-03T06:30:40.265Z,48.29
2022-09-03T06:31:40.384Z,48.19
2022-09-03T06:32:40.230Z,48.09
2022-09-03T06:33:40.210Z,48.19
2022-09-03T06:34:40.193Z,48.39
2022-09-03T06:35:43.183Z,48.19
2022-09-03T06:36:40.171Z,48.29
2022-09-03T06:37:40.154Z,48.29
2022-09-03T06:38:40.181Z,48.69
2022-09-03T06:39:40.239Z,48.59
2022-09-03T06:40:40.131Z,48.79
2022-09-03T06:41:40.232Z,48.99
2022-09-03T06:42:40.095Z,50.31
2022-09-03T06:43:40.117Z,51.21
2022-09-03T06:44:40.077Z,51.21
2022-09-03T06:45:40.201Z,50.10
2022-09-03T06:46:40.060Z,50.60
2022-09-03T06:47:40.049Z,51.21
2022-09-03T06:48:40.068Z,52.51
2022-09-03T06:49:40.053Z,53.42
2022-09-03T06:50:40.015Z,53.02
2022-09-03T06:51:40.014Z,50.51
2022-09-03T06:52:39.987Z,53.22
2022-09-03T06:53:39.984Z,51.51
2022-09-03T06:54:39.991Z,51.71
2022-09-03T06:55:39.998Z,51.81
2022-09-03T06:56:40.955Z,51.51
2022-09-03T06:57:39.952Z,50.71
2022-09-03T06:58:39.953Z,51.51
2022-09-03T06:59:39.945Z,52.62
2022-09-03T07:00:40.015Z,51.51
2022-09-03T07:01:40.150Z,52.51
2022-09-03T07:02:44.692Z,52.82
2022-09-03T07:03:39.974Z,51.91
2022-09-03T07:04:39.863Z,52.31
2022-09-03T07:05:39.867Z,51.11
2022-09-03T07:06:39.861Z,51.41
2022-09-03T07:07:39.863Z,51.61
2022-09-03T07:08:39.821Z,51.71
2022-09-03T07:09:39.837Z,51.71
2022-09-03T07:10:39.812Z,52.51
2022-09-03T07:11:39.800Z,52.11
2022-09-03T07:12:39.825Z,53.22
2022-09-03T07:13:39.777Z,52.42
2022-09-03T07:14:39.754Z,51.81
2022-09-03T07:15:39.751Z,51.41
2022-09-03T07:16:39.857Z,52.51
2022-09-03T07:17:39.727Z,52.22
2022-09-03T07:18:39.729Z,53.12
2022-09-03T07:19:39.748Z,52.51
2022-09-03T07:20:39.743Z,53.02
2022-09-03T07:21:39.698Z,53.22
2022-09-03T07:22:39.685Z,52.69
2022-09-03T07:23:39.671Z,52.89
2022-09-03T07:24:39.666Z,54.00
2022-09-03T07:25:39.667Z,53.72
2022-09-03T07:26:39.629Z,53.42
2022-09-03T07:27:39.646Z,53.50
2022-09-03T07:28:39.624Z,52.80
2022-09-03T07:29:39.603Z,52.69
2022-09-03T07:30:39.610Z,52.69
2022-09-03T07:31:39.658Z,53.00
2022-09-03T07:32:39.584Z,52.89
2022-09-03T07:33:39.562Z,53.00
2022-09-03T07:34:39.547Z,52.09
2022-09-03T07:35:39.536Z,51.99
2022-09-03T07:36:39.558Z,52.29
2022-09-03T07:37:39.527Z,53.90
2022-09-03T07:38:39.632Z,53.72
2022-09-03T07:39:39.548Z,54.23
2022-09-03T07:40:39.485Z,55.83
2022-09-03T07:41:39.512Z,55.83
2022-09-03T07:42:39.478Z,54.73
2022-09-03T07:43:39.450Z,55.03
2022-09-03T07:44:39.452Z,55.03
2022-09-03T07:45:39.447Z,54.73
2022-09-03T07:46:39.676Z,55.13
2022-09-03T07:47:39.459Z,54.33
2022-09-03T07:48:39.396Z,55.13
2022-09-03T07:49:39.385Z,54.53
2022-09-03T07:50:39.383Z,55.13
2022-09-03T07:51:39.367Z,55.13
2022-09-03T07:52:39.382Z,54.83
2022-09-03T07:53:39.350Z,54.53
2022-09-03T07:54:39.338Z,53.92
2022-09-03T07:55:39.323Z,54.43
2022-09-03T07:56:39.331Z,54.23
2022-09-03T07:57:39.303Z,54.33
2022-09-03T07:58:39.305Z,54.43
2022-09-03T07:59:39.284Z,54.23
2022-09-03T08:00:39.346Z,54.53
2022-09-03T08:01:41.435Z,54.33
2022-09-03T08:02:41.994Z,54.43
2022-09-03T08:03:39.282Z,54.63
2022-09-03T08:04:39.233Z,54.63
2022-09-03T08:05:39.209Z,54.43
2022-09-03T08:06:39.211Z,54.13
2022-09-03T08:07:39.223Z,54.03
2022-09-03T08:08:39.180Z,54.83
2022-09-03T08:09:39.217Z,55.23
2022-09-03T08:10:39.161Z,54.73
2022-09-03T08:11:39.172Z,55.23
2022-09-03T08:12:39.140Z,55.94
2022-09-03T08:13:39.160Z,58.25
2022-09-03T08:14:39.141Z,57.04
2022-09-03T08:15:39.127Z,57.65
2022-09-03T08:16:39.167Z,57.15
2022-09-03T08:17:39.086Z,59.56
2022-09-03T08:18:39.075Z,61.67
2022-09-03T08:19:39.088Z,62.27
2022-09-03T08:20:39.064Z,60.87
2022-09-03T08:21:39.047Z,61.87
2022-09-03T08:22:39.031Z,60.47
2022-09-03T08:23:39.020Z,60.67
2022-09-03T08:24:39.052Z,61.60
2022-09-03T08:25:39.046Z,61.50
2022-09-03T08:26:38.999Z,61.20
2022-09-03T08:27:38.983Z,64.12
2022-09-03T08:28:38.976Z,64.32
2022-09-03T08:29:38.956Z,64.02
2022-09-03T08:30:38.956Z,64.02
2022-09-03T08:31:39.065Z,63.31
2022-09-03T08:32:38.930Z,63.21
2022-09-03T08:33:38.926Z,63.71
2022-09-03T08:34:38.916Z,64.42
2022-09-03T08:35:38.893Z,65.22
2022-09-03T08:36:39.438Z,65.73
2022-09-03T08:37:38.877Z,64.42
2022-09-03T08:38:39.096Z,65.73
2022-09-03T08:39:38.922Z,64.32
2022-09-03T08:40:38.875Z,64.12
2022-09-03T08:41:38.832Z,65.93
2022-09-03T08:42:38.824Z,64.92
2022-09-03T08:43:38.820Z,68.85
2022-09-03T08:44:38.807Z,68.15
2022-09-03T08:45:38.789Z,68.15
2022-09-03T08:46:39.052Z,68.75
2022-09-03T08:47:38.773Z,66.94
2022-09-03T08:48:38.759Z,70.16
2022-09-03T08:49:38.801Z,68.75
2022-09-03T08:50:38.750Z,68.55
2022-09-03T08:51:38.729Z,67.34
2022-09-03T08:52:38.719Z,66.53
2022-09-03T08:53:38.696Z,72.17
2022-09-03T08:54:38.700Z,70.86
2022-09-03T08:55:38.739Z,66.83
2022-09-03T08:56:38.689Z,69.56
2022-09-03T08:57:38.659Z,69.25
2022-09-03T08:58:38.669Z,67.14
2022-09-03T08:59:38.635Z,68.55
2022-09-03T09:00:38.630Z,68.04
2022-09-03T09:01:38.745Z,69.05
2022-09-03T09:02:38.737Z,69.76
2022-09-03T09:03:38.605Z,70.36
2022-09-03T09:04:38.594Z,66.53
2022-09-03T09:05:38.574Z,68.75
2022-09-03T09:06:38.610Z,66.94
2022-09-03T09:07:38.553Z,68.04
2022-09-03T09:08:38.555Z,69.56
2022-09-03T09:09:38.540Z,68.55
2022-09-03T09:10:38.577Z,67.44
2022-09-03T09:11:38.521Z,69.15
2022-09-03T09:12:45.644Z,69.92
2022-09-03T09:13:38.488Z,69.92
2022-09-03T09:14:39.421Z,69.42
2022-09-03T09:15:38.543Z,69.32
2022-09-03T09:16:38.457Z,68.41
2022-09-03T09:17:38.498Z,69.42
2022-09-03T09:18:38.435Z,68.31
2022-09-03T09:19:38.443Z,69.22
2022-09-03T09:20:38.434Z,69.22
2022-09-03T09:21:38.416Z,67.51
2022-09-03T09:22:38.393Z,65.16
2022-09-03T09:23:38.378Z,66.47
2022-09-03T09:24:38.424Z,68.78
2022-09-03T09:25:38.369Z,68.18
2022-09-03T09:26:38.347Z,69.49
2022-09-03T09:27:38.337Z,68.98
2022-09-03T09:28:38.326Z,66.07
2022-09-03T09:29:38.316Z,66.67
2022-09-03T09:30:38.301Z,64.66
2022-09-03T09:31:38.361Z,64.26
2022-09-03T09:32:39.321Z,65.36
2022-09-03T09:33:38.280Z,65.64
2022-09-03T09:34:38.270Z,67.24
2022-09-03T09:35:38.247Z,65.84
2022-09-03T09:36:38.257Z,67.85
2022-09-03T09:37:38.283Z,66.44
2022-09-03T09:38:38.229Z,67.24
2022-09-03T09:39:38.261Z,65.73
2022-09-03T09:40:41.493Z,65.53
2022-09-03T09:41:38.208Z,67.04
2022-09-03T09:42:38.212Z,64.83
2022-09-03T09:43:38.190Z,64.83
2022-09-03T09:44:38.158Z,65.64
2022-09-03T09:45:38.157Z,65.73
2022-09-03T09:46:38.328Z,66.44
2022-09-03T09:47:38.134Z,67.55
2022-09-03T09:48:38.143Z,63.53
2022-09-03T09:49:38.164Z,63.59
2022-09-03T09:50:38.171Z,63.73
2022-09-03T09:51:38.101Z,64.13
2022-09-03T09:52:38.070Z,63.82
2022-09-03T09:53:38.063Z,63.93
2022-09-03T09:54:38.068Z,65.84
2022-09-03T09:55:38.034Z,63.73
2022-09-03T09:56:38.028Z,64.43
2022-09-03T09:57:38.010Z,64.53
2022-09-03T09:58:38.052Z,64.33
2022-09-03T09:59:38.008Z,64.93
2022-09-03T10:00:38.015Z,64.33
2022-09-03T10:01:38.046Z,64.13
2022-09-03T10:02:38.053Z,64.23
2022-09-03T10:03:37.948Z,64.33
2022-09-03T10:04:37.935Z,63.53
2022-09-03T10:05:37.930Z,63.12
2022-09-03T10:06:37.954Z,63.62
2022-09-03T10:07:37.904Z,64.13
2022-09-03T10:08:37.897Z,64.43
2022-09-03T10:09:37.882Z,64.76
2022-09-03T10:10:37.939Z,64.06
2022-09-03T10:11:37.873Z,64.56
2022-09-03T10:12:37.869Z,62.75
2022-09-03T10:13:37.839Z,64.46
2022-09-03T10:14:37.835Z,64.06
2022-09-03T10:15:37.845Z,63.76
2022-09-03T10:16:37.813Z,64.86
2022-09-03T10:17:37.829Z,63.96
2022-09-03T10:18:37.815Z,65.77
2022-09-03T10:19:37.775Z,63.65
2022-09-03T10:20:37.775Z,64.16
2022-09-03T10:21:37.751Z,64.36
2022-09-03T10:22:37.749Z,64.56
2022-09-03T10:23:37.756Z,65.47
2022-09-03T10:24:37.735Z,65.73
2022-09-03T10:25:37.708Z,67.14
2022-09-03T10:26:37.710Z,65.64
2022-09-03T10:27:37.688Z,66.64
2022-09-03T10:31:04.362Z,65.33
2022-09-03T10:32:11.296Z,64.83
2022-09-03T10:33:05.286Z,63.82
2022-09-03T10:34:05.285Z,64.83
2022-09-03T10:35:05.248Z,63.79
2022-09-03T10:37:21.475Z,63.59
2022-09-03T10:38:28.471Z,63.59
2022-09-03T10:39:28.531Z,63.09
2022-09-03T10:40:22.445Z,64.50
2022-09-03T10:41:22.470Z,64.67
2022-09-03T10:42:22.427Z,63.56
2022-09-03T10:43:22.404Z,64.47
2022-09-03T10:44:22.409Z,62.16
2022-09-03T10:45:22.382Z,63.96
2022-09-03T10:46:24.336Z,63.76
2022-09-03T10:47:22.375Z,62.63
2022-09-03T10:48:22.386Z,62.53
2022-09-03T10:49:22.341Z,62.63
2022-09-03T10:50:22.352Z,62.73
2022-09-03T10:51:22.339Z,62.93
2022-09-03T10:52:22.320Z,64.34
2022-09-03T10:53:22.300Z,62.60
2022-09-03T10:54:22.292Z,63.10
2022-09-03T10:55:22.292Z,61.40
2022-09-03T10:56:22.267Z,62.80
2022-09-03T10:57:22.253Z,63.70
2022-09-03T10:58:22.247Z,62.77
2022-09-03T10:59:25.099Z,61.36
2022-09-03T11:00:22.266Z,61.97
2022-09-03T11:01:22.333Z,61.67
2022-09-03T11:02:22.268Z,61.87
2022-09-03T11:03:22.197Z,59.77
2022-09-03T11:04:22.183Z,62.57
2022-09-03T11:05:22.190Z,61.54
2022-09-03T11:06:22.189Z,62.44
2022-09-03T11:07:22.144Z,61.34
2022-09-03T11:08:22.187Z,60.74
2022-09-03T11:09:22.124Z,61.04
2022-09-03T11:10:22.129Z,61.44
2022-09-03T11:11:22.130Z,63.45
2022-09-03T11:12:22.103Z,62.74
2022-09-03T11:13:22.083Z,62.71
2022-09-03T11:14:22.104Z,64.51
2022-09-03T11:15:28.106Z,62.21
2022-09-03T11:16:22.105Z,60.71
2022-09-03T11:17:22.059Z,60.11
2022-09-03T11:18:22.090Z,60.41
2022-09-03T11:19:22.017Z,62.11
2022-09-03T11:20:22.011Z,59.88
2022-09-03T11:21:22.059Z,60.78
2022-09-03T11:22:21.992Z,60.68
2022-09-03T11:23:21.980Z,60.88
2022-09-03T11:24:21.978Z,60.38
2022-09-03T11:25:21.967Z,60.88
2022-09-03T11:26:21.946Z,59.88
2022-09-03T11:27:21.968Z,61.38
2022-09-03T11:28:21.940Z,61.98
2022-09-03T11:29:21.921Z,60.75
2022-09-03T11:30:21.901Z,61.05
2022-09-03T11:31:21.992Z,60.35
2022-09-03T11:32:21.892Z,60.85
2022-09-03T11:33:21.921Z,60.55
2022-09-03T11:34:23.580Z,61.02
2022-09-03T11:35:21.864Z,60.12
2022-09-03T11:36:21.845Z,60.02
2022-09-03T11:37:21.840Z,62.22
2022-09-03T11:38:21.827Z,60.22
2022-09-03T11:39:21.942Z,59.42
2022-09-03T11:40:21.799Z,59.42
2022-09-03T11:41:21.784Z,58.99
2022-09-03T11:42:21.779Z,61.09
2022-09-03T11:43:21.775Z,61.19
2022-09-03T11:44:21.764Z,58.00
2022-09-03T11:45:21.768Z,56.96
2022-09-03T11:46:22.075Z,58.86
2022-09-03T11:47:21.735Z,58.76
2022-09-03T11:48:21.708Z,58.44
2022-09-03T11:49:21.712Z,58.14
2022-09-03T11:50:21.786Z,59.14
2022-09-03T11:51:21.704Z,59.14
2022-09-03T11:52:21.672Z,58.21
2022-09-03T11:53:21.652Z,57.01
2022-09-03T11:54:21.646Z,56.09
2022-09-03T11:55:21.644Z,55.79
2022-09-03T11:56:21.651Z,57.58
2022-09-03T11:57:21.612Z,57.35
2022-09-03T11:58:21.621Z,55.36
2022-09-03T11:59:21.597Z,57.56
2022-09-03T12:00:21.589Z,55.83
2022-09-03T12:01:21.579Z,55.04
2022-09-03T12:02:21.618Z,57.03
2022-09-03T12:03:21.551Z,54.31
2022-09-03T12:04:21.575Z,53.81
2022-09-03T12:05:21.527Z,55.31
2022-09-03T12:06:21.523Z,53.41
2022-09-03T12:07:21.537Z,52.79
2022-09-03T12:08:21.530Z,52.59
2022-09-03T12:09:21.492Z,52.29
2022-09-03T12:10:21.485Z,51.67
2022-09-03T12:11:21.467Z,53.66
2022-09-03T12:12:21.454Z,52.17
2022-09-03T12:13:21.461Z,52.17
2022-09-03T12:14:21.467Z,51.35
2022-09-03T12:15:21.423Z,52.04
2022-09-03T12:16:21.478Z,50.75
2022-09-03T12:17:21.414Z,50.52
2022-09-03T12:18:21.428Z,52.42
2022-09-03T12:19:21.384Z,51.82
2022-09-03T12:20:21.374Z,50.03
2022-09-03T12:21:21.359Z,50.13
2022-09-03T12:22:21.359Z,50.40
2022-09-03T12:23:21.344Z,49.80
2022-09-03T12:24:21.349Z,50.01
2022-09-03T12:25:21.322Z,49.80
2022-09-03T12:26:21.323Z,49.51
2022-09-03T12:27:21.297Z,50.10
2022-09-03T12:28:21.304Z,49.80
2022-09-03T12:29:21.285Z,51.50
2022-09-03T12:30:21.269Z,51.79
2022-09-03T12:31:21.352Z,49.91
2022-09-03T12:32:21.246Z,49.19
2022-09-03T12:33:21.232Z,50.88
2022-09-03T12:34:21.244Z,50.38
2022-09-03T12:36:21.214Z,50.98
2022-09-03T12:38:04.137Z,49.98
2022-09-03T12:38:21.189Z,49.08
2022-09-03T12:40:05.136Z,49.49
2022-09-03T12:40:21.240Z,50.88
2022-09-03T12:41:26.564Z,49.58
2022-09-03T12:42:21.152Z,48.10
2022-09-03T12:44:21.147Z,50.58
2022-09-03T12:45:21.102Z,52.26
2022-09-03T12:46:21.145Z,50.48
2022-09-03T12:47:37.803Z,48.79
2022-09-03T12:48:21.082Z,49.08
2022-09-03T12:49:36.479Z,48.66
2022-09-03T12:50:21.079Z,49.58
2022-09-03T12:52:21.049Z,48.79
2022-09-03T12:53:21.033Z,48.39
2022-09-03T12:54:21.049Z,47.89
2022-09-03T12:55:21.018Z,48.19
2022-09-03T12:56:20.990Z,49.38
2022-09-03T12:57:20.978Z,49.78
2022-09-03T12:58:20.982Z,50.18
2022-09-03T12:59:20.961Z,48.10
2022-09-03T13:00:20.953Z,50.98
2022-09-03T13:01:21.036Z,49.08
2022-09-03T13:02:21.093Z,48.99
2022-09-03T13:03:20.975Z,49.19
2022-09-03T13:04:20.914Z,46.78
2022-09-03T13:05:20.920Z,48.47
2022-09-03T13:06:20.890Z,50.56
2022-09-03T13:07:20.874Z,47.28
2022-09-03T13:08:20.868Z,48.86
2022-09-03T13:09:20.852Z,48.47
2022-09-03T13:10:20.849Z,48.17
2022-09-03T13:11:20.859Z,46.88
2022-09-03T13:12:20.822Z,46.78
2022-09-03T13:13:20.812Z,48.27
2022-09-03T13:14:20.813Z,47.38
2022-09-03T13:15:20.787Z,49.56
2022-09-03T13:16:20.879Z,48.27
2022-09-03T13:17:20.811Z,47.28
2022-09-03T13:18:20.762Z,46.88
2022-09-03T13:19:20.750Z,47.67
2022-09-03T13:20:20.748Z,47.67
2022-09-03T13:21:20.741Z,48.17
2022-09-03T13:22:20.723Z,48.17
2022-09-03T13:23:20.715Z,49.19
2022-09-03T13:24:20.698Z,48.19
2022-09-03T13:25:20.699Z,47.70
2022-09-03T13:26:20.789Z,50.28
2022-09-03T13:27:20.676Z,47.40
2022-09-03T13:28:20.660Z,48.39
2022-09-03T13:29:20.644Z,50.38
2022-09-03T13:30:20.640Z,50.98
2022-09-03T13:31:20.698Z,50.48
2022-09-03T13:32:20.648Z,48.99
2022-09-03T13:33:20.598Z,49.29
2022-09-03T13:34:20.595Z,48.71
2022-09-03T13:35:20.603Z,48.10
2022-09-03T13:36:20.580Z,47.60
2022-09-03T13:37:20.558Z,48.39
2022-09-03T13:38:20.556Z,49.78
2022-09-03T13:39:20.575Z,49.38
2022-09-03T13:40:20.554Z,49.98
2022-09-03T13:41:20.538Z,48.49
2022-09-03T13:42:20.506Z,47.89
2022-09-03T13:43:20.560Z,47.50
2022-09-03T13:44:20.491Z,47.89
2022-09-03T13:45:20.487Z,47.60
2022-09-03T13:46:20.531Z,48.99
2022-09-03T13:47:20.476Z,48.29
2022-09-03T13:48:20.444Z,48.89
2022-09-03T13:49:20.432Z,49.68
2022-09-03T13:50:20.427Z,50.26
2022-09-03T13:51:20.418Z,48.57
2022-09-03T13:52:20.427Z,48.07
2022-09-03T13:53:20.429Z,48.27
2022-09-03T13:54:42.546Z,47.57
2022-09-03T13:55:20.387Z,47.08
2022-09-03T13:56:20.356Z,48.07
2022-09-03T13:57:20.348Z,47.47
2022-09-03T13:58:20.381Z,47.08
2022-09-03T13:59:20.387Z,48.25
2022-09-03T14:00:20.329Z,47.25
2022-09-03T14:01:20.536Z,49.34
2022-09-03T14:02:20.350Z,47.25
2022-09-03T14:03:20.334Z,48.25
2022-09-03T14:04:20.290Z,48.65
2022-09-03T14:05:20.269Z,48.14
2022-09-03T14:06:20.275Z,47.65
2022-09-03T14:07:20.245Z,46.46
2022-09-03T14:08:20.231Z,48.13
2022-09-03T14:09:20.226Z,48.13
2022-09-03T14:10:20.211Z,46.44
2022-09-03T14:11:20.202Z,47.53
2022-09-03T14:12:20.227Z,48.02
2022-09-03T14:13:20.186Z,45.84
2022-09-03T14:14:20.167Z,45.64
2022-09-03T14:15:20.164Z,47.90
2022-09-03T14:16:20.186Z,46.31
2022-09-03T14:17:20.138Z,45.32
2022-09-03T14:18:20.128Z,47.11
2022-09-03T14:19:20.117Z,47.80
2022-09-03T14:20:20.106Z,47.41
2022-09-03T14:21:20.101Z,46.12
2022-09-03T14:22:20.111Z,47.31
2022-09-03T14:23:20.131Z,45.82
2022-09-03T14:24:20.063Z,45.62
2022-09-03T14:25:20.058Z,44.73
2022-09-03T14:26:30.957Z,46.02
2022-09-03T14:27:20.054Z,46.98
2022-09-03T14:28:20.032Z,45.62
2022-09-03T14:29:20.010Z,45.20
2022-09-03T14:30:20.009Z,46.30
2022-09-03T14:31:20.055Z,47.88
2022-09-03T14:32:19.985Z,46.79
2022-09-03T14:33:20.121Z,45.10
2022-09-03T14:34:19.962Z,45.00
2022-09-03T14:35:19.961Z,46.91
2022-09-03T14:36:19.945Z,46.02
2022-09-03T14:37:19.932Z,46.02
2022-09-03T14:38:25.187Z,45.12
2022-09-03T14:39:19.972Z,46.12
2022-09-03T14:40:19.899Z,46.04
2022-09-03T14:41:19.899Z,46.93
2022-09-03T14:42:19.870Z,47.13
2022-09-03T14:43:19.955Z,48.52
2022-09-03T14:44:19.864Z,47.53
2022-09-03T14:45:19.847Z,45.94
2022-09-03T14:46:19.934Z,46.16
2022-09-03T14:47:19.824Z,46.36
2022-09-03T14:48:19.827Z,46.36
2022-09-03T14:49:19.809Z,46.95
2022-09-03T14:50:19.790Z,47.05
2022-09-03T14:51:20.100Z,46.76
2022-09-03T14:52:19.781Z,46.76
2022-09-03T14:53:19.799Z,46.36
2022-09-03T14:54:19.764Z,46.26
2022-09-03T14:55:19.778Z,47.28
2022-09-03T14:56:19.729Z,47.87
2022-09-03T14:57:19.718Z,47.38
2022-09-03T14:58:19.703Z,48.57
2022-09-03T14:59:20.016Z,49.26
2022-09-03T15:00:20.104Z,48.44
2022-09-03T15:01:19.749Z,48.35
2022-09-03T15:02:19.713Z,47.55
2022-09-03T15:03:19.678Z,46.73
2022-09-03T15:04:19.645Z,47.53
2022-09-03T15:05:19.636Z,46.93
2022-09-03T15:06:19.623Z,46.31
2022-09-03T15:07:19.654Z,45.92
2022-09-03T15:08:19.603Z,46.49
2022-09-03T15:09:19.600Z,46.07
2022-09-03T15:10:19.585Z,45.18
2022-09-03T15:11:19.600Z,45.68
2022-09-03T15:12:19.568Z,45.48
2022-09-03T15:13:19.578Z,44.76
2022-09-03T15:14:19.539Z,46.52
2022-09-03T15:15:19.531Z,45.73
2022-09-03T15:16:19.600Z,44.32
2022-09-03T15:17:19.551Z,44.23
2022-09-03T15:18:19.499Z,42.94
2022-09-03T15:19:19.491Z,44.31
2022-09-03T15:20:19.488Z,43.59
2022-09-03T15:21:19.472Z,44.78
2022-09-03T15:22:19.456Z,43.98
2022-09-03T15:23:19.481Z,43.69
2022-09-03T15:24:19.438Z,43.66
2022-09-03T15:25:19.429Z,43.27
2022-09-03T15:26:19.416Z,43.25
2022-09-03T15:27:19.409Z,43.55
2022-09-03T15:28:19.389Z,41.46
2022-09-03T15:29:19.404Z,42.22
2022-09-03T15:30:19.364Z,43.09
2022-09-03T15:31:19.387Z,42.79
2022-09-03T15:32:19.349Z,41.89
2022-09-03T15:33:19.345Z,41.96
2022-09-03T15:34:19.341Z,39.89
2022-09-03T15:35:19.354Z,40.69
2022-09-03T15:36:19.308Z,40.48
2022-09-03T15:37:19.302Z,39.39
2022-09-03T15:38:19.294Z,38.79
2022-09-03T15:39:19.309Z,38.78
2022-09-03T15:40:19.265Z,40.25
2022-09-03T15:41:19.290Z,39.44
2022-09-03T15:42:19.242Z,39.64
2022-09-03T15:43:19.239Z,38.34
2022-09-03T15:44:19.912Z,38.34
2022-09-03T15:45:19.293Z,37.85
2022-09-03T15:46:19.229Z,37.63
2022-09-03T15:47:19.199Z,37.34
2022-09-03T15:48:19.182Z,37.63
2022-09-03T15:49:19.189Z,38.72
2022-09-03T15:50:19.166Z,38.62
2022-09-03T15:51:19.162Z,36.63
2022-09-03T15:52:19.154Z,36.83
2022-09-03T15:53:19.198Z,36.34
2022-09-03T15:54:19.124Z,37.70
2022-09-03T15:55:19.110Z,37.01
2022-09-03T15:56:19.101Z,36.26
2022-09-03T15:57:19.103Z,37.97
2022-09-03T15:58:19.088Z,38.78
2022-09-03T15:59:19.121Z,39.11
2022-09-03T16:00:21.389Z,39.40
2022-09-03T16:01:19.079Z,40.80
2022-09-03T16:02:19.041Z,39.94
2022-09-03T16:03:23.694Z,40.74
2022-09-03T16:04:19.031Z,41.17
2022-09-03T16:05:19.035Z,41.30
2022-09-03T16:06:19.005Z,42.21
2022-09-03T16:07:18.994Z,42.70
2022-09-03T16:08:18.975Z,43.51
2022-09-03T16:09:18.980Z,44.42
2022-09-03T16:10:26.481Z,44.45
2022-09-03T16:11:18.958Z,43.95
2022-09-03T16:12:18.948Z,44.37
2022-09-03T16:13:18.987Z,45.26
2022-09-03T16:14:18.913Z,46.15
2022-09-03T16:15:18.914Z,45.57
2022-09-03T16:16:18.984Z,45.57
2022-09-03T16:17:18.903Z,45.78
2022-09-03T16:18:18.874Z,46.09
2022-09-03T16:19:18.868Z,46.39
2022-09-03T16:20:18.867Z,46.59
2022-09-03T16:21:18.846Z,46.69
2022-09-03T16:22:18.854Z,46.09
2022-09-03T16:23:18.838Z,47.38
2022-09-03T16:24:18.817Z,46.09
2022-09-03T16:25:18.804Z,46.71
2022-09-03T16:26:18.782Z,47.01
2022-09-03T16:27:18.778Z,47.31
2022-09-03T16:28:18.799Z,47.01
2022-09-03T16:29:18.762Z,47.01
2022-09-03T16:30:18.748Z,46.91
2022-09-03T16:31:18.807Z,46.91
2022-09-03T16:32:18.729Z,48.20
2022-09-03T16:33:18.719Z,47.61
2022-09-03T16:34:19.123Z,47.33
2022-09-03T16:35:18.698Z,47.83
2022-09-03T16:36:18.680Z,47.63
2022-09-03T16:37:18.680Z,48.72
2022-09-03T16:38:18.662Z,47.53
2022-09-03T16:39:18.729Z,49.61
2022-09-03T16:40:21.073Z,48.62
2022-09-03T16:41:18.654Z,48.25
2022-09-03T16:42:18.625Z,48.14
2022-09-03T16:43:39.600Z,49.14
2022-09-03T16:44:18.618Z,49.04
2022-09-03T16:45:18.594Z,49.04
2022-09-03T16:46:18.617Z,48.74
2022-09-03T16:47:18.581Z,48.57
2022-09-03T16:48:18.558Z,48.57
2022-09-03T16:49:18.569Z,50.85
2022-09-03T16:50:18.559Z,50.26
2022-09-03T16:51:18.531Z,49.96